Time;durP1;ratioP1;P1;durP2;ratioP2;P2;SDS_P1;SDS_P2;PMS_P1;PMS_P2;Temp;Humidity;BMP_temperature;BMP_pressure;BME280_temperature;BME280_humidity;BME280_pressure;Samples;Min_cycle;Max_cycle;Signal;HPM_P1;HPM_P2
2022/02/06 00:00:37;;;;;;;3.85;3.55;;;5.60;99.90;;;;;;5050444;28;20229;-59
2022/02/06 00:03:03;;;;;;;6.57;4.15;;;5.60;99.90;;;;;;5047555;28;20648;-58
2022/02/06 00:05:29;;;;;;;3.40;3.13;;;5.60;99.90;;;;;;5046583;28;20193;-51
2022/02/06 00:07:55;;;;;;;4.10;3.50;;;5.50;99.90;;;;;;5047926;28;20428;-55
2022/02/06 00:10:21;;;;;;;5.03;3.60;;;5.50;99.90;;;;;;5058599;28;20175;-54
2022/02/06 00:12:47;;;;;;;3.77;3.47;;;5.50;99.90;;;;;;5059523;28;20223;-55
2022/02/06 00:15:12;;;;;;;4.27;3.87;;;5.40;99.90;;;;;;5041337;28;20705;-54
2022/02/06 00:17:38;;;;;;;3.67;3.37;;;5.40;99.90;;;;;;5051077;28;20244;-53
2022/02/06 00:20:06;;;;;;;6.80;3.20;;;5.30;99.90;;;;;;5052175;28;20424;-52
2022/02/06 00:22:40;;;;;;;4.20;3.60;;;5.30;99.90;;;;;;5056428;28;20451;-51
2022/02/06 00:27:43;;;;;;;3.63;3.33;;;5.40;99.90;;;;;;5058340;28;20183;-52
2022/02/06 00:33:06;;;;;;;4.32;3.33;;;5.40;99.90;;;;;;5050430;28;20326;-54
2022/02/06 00:38:26;;;;;;;4.10;3.80;;;5.40;99.90;;;;;;5063428;28;20197;-48
2022/02/06 00:43:21;;;;;;;4.00;3.55;;;5.60;99.90;;;;;;5063905;28;20245;-57
2022/02/06 00:45:47;;;;;;;3.90;3.50;;;5.70;99.90;;;;;;5052145;28;20228;-53
2022/02/06 00:48:14;;;;;;;3.63;3.30;;;5.80;99.90;;;;;;5063984;28;20522;-50
2022/02/06 00:50:45;;;;;;;3.92;3.53;;;5.80;99.90;;;;;;5059697;28;20201;-55
2022/02/06 00:53:16;;;;;;;3.70;3.40;;;5.90;99.50;;;;;;5052082;28;20234;-53
2022/02/06 00:55:45;;;;;;;4.68;3.65;;;5.90;99.60;;;;;;5058085;28;20535;-53
2022/02/06 00:58:11;;;;;;;3.70;3.40;;;6.00;99.50;;;;;;5063545;28;20236;-56
2022/02/06 01:00:36;;;;;;;4.30;3.60;;;6.10;99.00;;;;;;5053143;28;20190;-51
2022/02/06 01:03:02;;;;;;;3.83;3.50;;;6.00;98.70;;;;;;5059228;28;20196;-54
2022/02/06 01:05:27;;;;;;;3.67;3.17;;;6.10;98.70;;;;;;5061861;28;20194;-54
2022/02/06 01:07:54;;;;;;;3.67;3.37;;;6.10;98.30;;;;;;5059925;28;20202;-52
2022/02/06 01:10:20;;;;;;;3.60;3.30;;;6.10;98.50;;;;;;5058911;28;20182;-49
2022/02/06 01:12:54;;;;;;;3.60;3.37;;;6.10;98.60;;;;;;5059594;28;20206;-52
2022/02/06 01:15:24;;;;;;;2.70;2.50;;;6.10;98.80;;;;;;5060807;28;20263;-51
2022/02/06 01:17:56;;;;;;;3.60;3.30;;;6.10;98.60;;;;;;5061220;28;20209;-49
2022/02/06 01:20:29;;;;;;;3.20;3.00;;;6.20;98.20;;;;;;5053241;28;20184;-50
2022/02/06 01:23:03;;;;;;;4.00;3.70;;;6.20;98.20;;;;;;5062839;28;20194;-49
2022/02/06 01:25:44;;;;;;;3.45;3.17;;;6.10;98.60;;;;;;5058657;28;20189;-51
2022/02/06 01:28:14;;;;;;;3.88;3.47;;;6.20;98.60;;;;;;5058282;28;20178;-53
2022/02/06 01:33:12;;;;;;;3.53;3.20;;;6.30;99.20;;;;;;5060723;28;20205;-52
2022/02/06 01:35:48;;;;;;;3.70;3.25;;;6.30;99.30;;;;;;5061029;28;20914;-58
2022/02/06 01:38:26;;;;;;;4.75;2.90;;;6.20;99.90;;;;;;5061767;28;20183;-50
2022/02/06 01:40:59;;;;;;;3.97;3.20;;;6.20;99.90;;;;;;5062179;28;20181;-55
2022/02/06 01:43:33;;;;;;;5.70;3.08;;;6.20;99.90;;;;;;5051125;28;20187;-53
2022/02/06 02:02:26;;;;;;;3.47;3.17;;;5.80;99.90;;;;;;5047232;28;20312;-56
2022/02/06 02:16:20;;;;;;;2.70;2.50;;;5.30;99.90;;;;;;5050176;28;20192;-55
2022/02/06 02:21:53;;;;;;;2.95;2.70;;;5.30;99.90;;;;;;5033284;28;20671;-51
2022/02/06 02:26:56;;;;;;;5.43;3.10;;;5.00;99.90;;;;;;5049796;28;20605;-50
2022/02/06 02:30:12;;;;;;;3.83;3.03;;;5.00;99.90;;;;;;5050585;28;20273;-52
2022/02/06 02:32:50;;;;;;;5.05;2.38;;;5.00;99.90;;;;;;5055855;28;20228;-52
2022/02/06 02:48:33;;;;;;;8.63;3.17;;;4.90;99.90;;;;;;5058023;28;20636;-53
2022/02/06 02:51:04;;;;;;;4.28;3.45;;;4.80;99.90;;;;;;5054454;28;20198;-53
2022/02/06 02:53:36;;;;;;;4.45;2.75;;;4.70;99.90;;;;;;5049096;28;20230;-49
2022/02/06 02:56:20;;;;;;;5.03;3.00;;;4.80;99.90;;;;;;5050314;28;20197;-53
2022/02/06 02:59:16;;;;;;;6.97;3.35;;;4.80;99.90;;;;;;5065180;28;20186;-53
2022/02/06 03:01:55;;;;;;;3.78;2.63;;;4.70;99.90;;;;;;5047858;28;20194;-49
2022/02/06 03:04:20;;;;;;;4.45;3.00;;;4.80;99.90;;;;;;5050657;28;20583;-49
2022/02/06 03:06:45;;;;;;;6.20;3.23;;;4.80;99.90;;;;;;5046454;28;20301;-48
2022/02/06 03:09:11;;;;;;;2.97;2.77;;;4.80;99.90;;;;;;5050071;28;20261;-52
2022/02/06 03:11:37;;;;;;;3.33;2.73;;;4.80;99.90;;;;;;5049098;28;20272;-53
2022/02/06 03:16:31;;;;;;;4.37;2.90;;;4.90;99.90;;;;;;5051644;28;20174;-52
2022/02/06 03:19:03;;;;;;;3.90;3.00;;;4.80;99.90;;;;;;5042411;28;20178;-53
2022/02/06 03:21:30;;;;;;;4.30;2.78;;;4.70;99.90;;;;;;5049613;28;20186;-49
2022/02/06 03:24:07;;;;;;;3.38;2.50;;;4.80;99.90;;;;;;5056701;28;20192;-51
2022/02/06 03:26:32;;;;;;;4.13;3.40;;;4.80;99.90;;;;;;5058969;28;20251;-52
2022/02/06 03:28:58;;;;;;;8.20;2.17;;;4.80;99.90;;;;;;5057165;28;20185;-53
2022/02/06 03:31:24;;;;;;;4.50;2.73;;;4.90;99.90;;;;;;5055182;28;20233;-51
2022/02/06 03:33:50;;;;;;;3.37;2.70;;;4.90;99.90;;;;;;5053359;28;20185;-50
2022/02/06 03:36:16;;;;;;;3.97;2.20;;;4.80;99.90;;;;;;5052535;28;20440;-51
2022/02/06 03:38:42;;;;;;;6.03;3.10;;;4.90;99.90;;;;;;5048782;28;20186;-53
2022/02/06 03:41:11;;;;;;;4.00;3.00;;;4.90;99.90;;;;;;5061012;28;20243;-52
2022/02/06 03:43:51;;;;;;;3.30;3.00;;;4.90;99.90;;;;;;5050638;28;20205;-54
2022/02/06 03:46:34;;;;;;;4.15;2.80;;;4.90;99.90;;;;;;5052302;28;20173;-52
2022/02/06 03:51:36;;;;;;;3.25;2.92;;;5.00;99.90;;;;;;5065592;28;20190;-55
2022/02/06 03:54:03;;;;;;;3.53;3.00;;;5.10;99.90;;;;;;5049230;28;20225;-51
2022/02/06 03:56:30;;;;;;;2.65;2.45;;;5.20;99.90;;;;;;5055414;28;20175;-51
2022/02/06 03:58:57;;;;;;;3.42;2.80;;;5.20;99.90;;;;;;5048561;28;20586;-54
2022/02/06 04:01:22;;;;;;;3.55;2.85;;;5.30;99.90;;;;;;5049530;28;20270;-53
2022/02/06 04:03:48;;;;;;;5.30;3.00;;;5.30;99.90;;;;;;5052439;28;20297;-52
2022/02/06 04:06:14;;;;;;;6.70;2.93;;;5.30;99.90;;;;;;5049219;28;20456;-49
2022/02/06 04:08:41;;;;;;;5.57;2.60;;;5.50;99.90;;;;;;5052365;28;20197;-54
2022/02/06 04:11:11;;;;;;;4.00;2.70;;;5.60;99.90;;;;;;5072323;28;20186;-51
2022/02/06 04:13:51;;;;;;;3.95;3.00;;;5.70;99.90;;;;;;5060978;28;20190;-54
2022/02/06 04:16:25;;;;;;;4.15;2.38;;;5.70;99.90;;;;;;5043260;28;20181;-49
2022/02/06 04:18:54;;;;;;;5.45;3.03;;;5.80;99.90;;;;;;5053075;28;20298;-54
2022/02/06 04:21:19;;;;;;;5.05;2.40;;;5.90;99.90;;;;;;5052428;28;20607;-53
2022/02/06 04:23:45;;;;;;;2.27;2.10;;;6.00;99.90;;;;;;5059183;28;20252;-50
2022/02/06 04:26:10;;;;;;;4.40;2.57;;;6.00;99.90;;;;;;5070213;28;20209;-52
2022/02/06 04:28:36;;;;;;;5.43;2.77;;;6.00;99.90;;;;;;5052833;28;20192;-55
2022/02/06 04:31:02;;;;;;;3.20;2.50;;;6.00;99.90;;;;;;5051280;28;20601;-50
2022/02/06 04:33:27;;;;;;;5.22;2.40;;;6.00;99.90;;;;;;5053201;28;20518;-48
2022/02/06 04:35:57;;;;;;;5.60;2.40;;;6.00;99.90;;;;;;5051988;28;20181;-50
2022/02/06 04:38:47;;;;;;;3.88;2.75;;;6.00;99.90;;;;;;5058980;28;20174;-50
2022/02/06 04:41:37;;;;;;;3.67;2.10;;;6.00;99.90;;;;;;5065620;28;20178;-49
2022/02/06 04:47:13;;;;;;;5.80;2.83;;;5.90;99.90;;;;;;5057200;28;20198;-54
2022/02/06 04:55:04;;;;;;;2.40;2.20;;;5.80;99.90;;;;;;5051506;28;20232;-54
2022/02/06 05:16:49;;;;;;;4.53;2.28;;;5.70;99.90;;;;;;5052096;28;20184;-55
2022/02/06 05:22:23;;;;;;;3.00;2.15;;;5.60;99.90;;;;;;5063630;28;20196;-49
2022/02/06 05:32:35;;;;;;;3.40;2.33;;;5.60;99.90;;;;;;5051869;28;20260;-54
2022/02/06 05:35:02;;;;;;;3.88;2.25;;;5.60;99.90;;;;;;5051808;28;20181;-52
2022/02/06 05:37:28;;;;;;;5.72;2.55;;;5.50;99.90;;;;;;5048112;28;20185;-50
2022/02/06 05:39:54;;;;;;;2.57;1.93;;;5.50;99.90;;;;;;5054360;28;20652;-51
2022/02/06 05:42:20;;;;;;;4.13;2.60;;;5.50;99.90;;;;;;5056701;28;20186;-51
2022/02/06 05:44:53;;;;;;;2.65;1.95;;;5.40;99.90;;;;;;5051468;28;20245;-50
2022/02/06 05:47:18;;;;;;;2.35;2.10;;;5.50;99.90;;;;;;5050575;28;20247;-57
2022/02/06 05:49:44;;;;;;;2.87;2.40;;;5.40;99.90;;;;;;5051610;28;20182;-54
2022/02/06 05:52:09;;;;;;;2.33;2.10;;;5.50;99.90;;;;;;5049746;28;20236;-49
2022/02/06 05:54:35;;;;;;;2.37;2.00;;;5.50;99.90;;;;;;5055605;28;20709;-52
2022/02/06 05:57:01;;;;;;;5.30;1.87;;;5.60;99.90;;;;;;5055141;28;20189;-53
2022/02/06 05:59:26;;;;;;;2.13;1.73;;;5.60;99.90;;;;;;5055612;28;21054;-51
2022/02/06 06:01:52;;;;;;;2.17;1.37;;;5.70;99.90;;;;;;5051821;28;20186;-50
2022/02/06 06:04:18;;;;;;;2.20;2.00;;;5.70;99.90;;;;;;5050925;28;20190;-52
2022/02/06 06:06:43;;;;;;;2.10;2.00;;;5.80;99.90;;;;;;5053230;28;20439;-49
2022/02/06 06:09:09;;;;;;;2.43;1.70;;;5.80;99.90;;;;;;5055225;28;20186;-49
2022/02/06 06:11:35;;;;;;;2.47;1.70;;;5.90;99.90;;;;;;5051004;28;20209;-49
2022/02/06 06:14:00;;;;;;;2.53;2.20;;;6.00;99.90;;;;;;5057626;28;20651;-53
2022/02/06 06:16:26;;;;;;;2.70;1.70;;;6.00;99.90;;;;;;5066537;28;20178;-49
2022/02/06 06:18:52;;;;;;;1.87;1.77;;;6.00;99.90;;;;;;5048640;28;20177;-51
2022/02/06 06:21:20;;;;;;;3.20;1.67;;;6.20;99.90;;;;;;5050657;28;20265;-51
2022/02/06 06:23:45;;;;;;;1.90;1.70;;;6.20;99.90;;;;;;5050175;28;20182;-55
2022/02/06 06:26:16;;;;;;;1.80;1.17;;;6.30;99.90;;;;;;5053528;28;20179;-51
2022/02/06 06:28:41;;;;;;;3.10;1.70;;;6.50;99.90;;;;;;5042324;28;20186;-49
2022/02/06 06:31:07;;;;;;;8.53;1.93;;;6.60;99.90;;;;;;5051184;28;20186;-48
2022/02/06 06:33:32;;;;;;;1.80;1.70;;;6.60;99.90;;;;;;5052620;28;20221;-53
2022/02/06 06:35:59;;;;;;;3.23;1.50;;;6.60;99.90;;;;;;5052835;28;20237;-48
2022/02/06 06:38:25;;;;;;;1.33;1.23;;;6.70;99.90;;;;;;5051856;28;20272;-50
2022/02/06 06:40:51;;;;;;;1.45;1.35;;;6.80;99.90;;;;;;5052924;28;20186;-50
2022/02/06 06:43:16;;;;;;;2.10;1.47;;;6.80;99.90;;;;;;5054390;28;20546;-48
2022/02/06 06:45:43;;;;;;;2.77;1.53;;;6.80;99.90;;;;;;5058328;28;20642;-53
2022/02/06 06:48:08;;;;;;;3.05;1.50;;;6.80;99.90;;;;;;5051870;28;20185;-52
2022/02/06 06:50:34;;;;;;;4.13;1.90;;;6.80;99.90;;;;;;5050239;28;20637;-48
2022/02/06 06:53:02;;;;;;;2.07;1.63;;;6.70;99.90;;;;;;5049345;28;20287;-54
2022/02/06 06:55:30;;;;;;;2.40;1.30;;;6.70;99.90;;;;;;5049888;28;20580;-52
2022/02/06 06:58:05;;;;;;;2.30;1.58;;;6.70;99.90;;;;;;5055038;28;20266;-51
2022/02/06 07:00:39;;;;;;;2.60;1.50;;;6.70;99.90;;;;;;5058019;28;20612;-52
2022/02/06 07:03:05;;;;;;;1.38;1.20;;;6.60;99.90;;;;;;5054819;28;20177;-53
2022/02/06 07:05:30;;;;;;;2.07;1.30;;;6.70;99.90;;;;;;5059635;28;20189;-50
2022/02/06 07:07:57;;;;;;;2.27;1.40;;;6.70;99.90;;;;;;5038414;28;20197;-57
2022/02/06 07:10:22;;;;;;;1.73;1.63;;;6.70;99.90;;;;;;5050275;28;20193;-50
2022/02/06 07:12:49;;;;;;;2.10;1.30;;;6.70;99.90;;;;;;5050127;28;20209;-52
2022/02/06 07:15:15;;;;;;;3.72;1.60;;;6.70;99.90;;;;;;5052514;28;20180;-52
2022/02/06 07:17:42;;;;;;;2.40;1.80;;;6.70;99.90;;;;;;5056000;28;20189;-52
2022/02/06 07:20:09;;;;;;;2.03;1.60;;;6.70;99.90;;;;;;5056610;28;20189;-52
2022/02/06 07:22:36;;;;;;;1.70;1.50;;;6.60;99.90;;;;;;5051666;28;20846;-49
2022/02/06 07:25:04;;;;;;;2.25;1.50;;;6.50;99.90;;;;;;5050874;28;20182;-49
2022/02/06 07:27:31;;;;;;;1.90;1.70;;;6.60;99.90;;;;;;5037617;28;20839;-52
2022/02/06 07:29:57;;;;;;;1.45;1.30;;;6.50;99.90;;;;;;5049730;28;20261;-53
2022/02/06 07:32:23;;;;;;;2.22;1.52;;;6.50;99.90;;;;;;5045962;28;20209;-51
2022/02/06 07:34:49;;;;;;;1.90;1.80;;;6.50;99.90;;;;;;5050130;28;20633;-52
2022/02/06 07:37:15;;;;;;;1.65;1.40;;;6.50;99.90;;;;;;5047500;28;20429;-54
2022/02/06 07:39:41;;;;;;;1.77;1.65;;;6.50;99.90;;;;;;5049845;28;20628;-54
2022/02/06 07:42:09;;;;;;;3.07;1.83;;;6.60;99.90;;;;;;5048773;28;20277;-48
2022/02/06 07:44:35;;;;;;;2.33;2.03;;;6.50;99.90;;;;;;5051916;28;20229;-53
2022/02/06 07:47:11;;;;;;;1.73;1.63;;;6.50;99.90;;;;;;5049479;28;20186;-50
2022/02/06 07:49:37;;;;;;;2.70;2.10;;;6.50;99.90;;;;;;5052722;28;20186;-50
2022/02/06 07:52:03;;;;;;;1.50;1.40;;;6.40;99.90;;;;;;5059559;28;20224;-55
2022/02/06 07:54:28;;;;;;;2.60;1.70;;;6.60;99.90;;;;;;5059584;28;20282;-52
2022/02/06 07:56:54;;;;;;;2.20;2.00;;;6.50;99.90;;;;;;5052244;28;20441;-53
2022/02/06 07:59:20;;;;;;;2.27;2.07;;;6.50;99.90;;;;;;5054270;28;20210;-49
2022/02/06 08:01:46;;;;;;;1.95;1.75;;;6.50;99.90;;;;;;5048896;28;20209;-48
2022/02/06 08:04:11;;;;;;;2.17;1.70;;;6.50;99.90;;;;;;5058899;28;20684;-51
2022/02/06 08:06:37;;;;;;;1.90;1.50;;;6.60;99.90;;;;;;5052850;28;20182;-51
2022/02/06 08:09:03;;;;;;;2.27;1.60;;;6.60;99.90;;;;;;5057331;28;20268;-52
2022/02/06 08:11:29;;;;;;;3.20;1.85;;;6.60;99.90;;;;;;5064595;28;20757;-51
2022/02/06 08:13:56;;;;;;;3.00;1.93;;;6.60;99.90;;;;;;5047896;28;20273;-53
2022/02/06 08:16:22;;;;;;;2.03;1.83;;;6.60;99.90;;;;;;5051396;28;20189;-51
2022/02/06 08:18:47;;;;;;;2.07;1.57;;;6.50;99.90;;;;;;5058143;28;20649;-51
2022/02/06 08:21:14;;;;;;;2.23;1.80;;;6.70;99.90;;;;;;5053438;28;20255;-52
2022/02/06 08:23:39;;;;;;;3.03;2.00;;;6.60;99.90;;;;;;5065550;28;20190;-48
2022/02/06 08:26:06;;;;;;;2.37;1.80;;;6.60;99.90;;;;;;5059698;28;20190;-55
2022/02/06 08:28:33;;;;;;;2.65;1.75;;;6.60;99.90;;;;;;5051228;28;20260;-51
2022/02/06 08:31:01;;;;;;;1.50;1.40;;;6.70;99.90;;;;;;5063141;28;20301;-53
2022/02/06 08:33:27;;;;;;;2.67;2.33;;;6.70;99.90;;;;;;5058892;28;20190;-50
2022/02/06 08:35:52;;;;;;;1.70;1.60;;;6.80;99.90;;;;;;5044958;28;20850;-51
2022/02/06 08:38:19;;;;;;;3.20;1.43;;;6.80;99.90;;;;;;5050144;28;21353;-49
2022/02/06 08:40:44;;;;;;;1.92;1.75;;;6.80;99.90;;;;;;5049945;28;20253;-50
2022/02/06 08:43:10;;;;;;;1.97;1.60;;;6.80;99.90;;;;;;5052991;28;20656;-51
2022/02/06 08:45:36;;;;;;;2.80;1.83;;;6.90;99.90;;;;;;5052879;28;20433;-51
2022/02/06 08:48:02;;;;;;;1.83;1.42;;;6.90;99.90;;;;;;5050046;28;20194;-51
2022/02/06 08:50:29;;;;;;;2.05;1.75;;;7.10;99.90;;;;;;5047110;28;20179;-50
2022/02/06 08:52:59;;;;;;;1.42;1.33;;;7.10;99.90;;;;;;5052088;28;20629;-51
2022/02/06 08:55:25;;;;;;;1.30;1.20;;;7.20;99.90;;;;;;5057539;28;20274;-52
2022/02/06 08:57:51;;;;;;;2.00;1.50;;;7.30;99.90;;;;;;5055725;28;20201;-53
2022/02/06 09:00:21;;;;;;;2.13;1.93;;;7.40;99.90;;;;;;5054365;28;20431;-51
2022/02/06 09:02:48;;;;;;;1.50;1.40;;;7.50;99.90;;;;;;5057112;28;20562;-56
2022/02/06 09:05:14;;;;;;;3.00;2.00;;;7.60;99.90;;;;;;5060186;28;20645;-51
2022/02/06 09:07:41;;;;;;;3.23;1.77;;;7.60;99.90;;;;;;5052850;28;20798;-52
2022/02/06 09:10:13;;;;;;;2.57;1.73;;;7.70;99.90;;;;;;5053684;28;20480;-53
2022/02/06 09:12:44;;;;;;;1.77;1.60;;;7.70;99.90;;;;;;5069509;28;21539;-54
2022/02/06 09:15:14;;;;;;;2.10;1.63;;;7.80;99.90;;;;;;5052860;28;20439;-52
2022/02/06 09:17:40;;;;;;;2.03;1.57;;;7.90;99.90;;;;;;5057772;28;20437;-52
2022/02/06 09:20:05;;;;;;;2.23;1.60;;;8.00;99.90;;;;;;5059020;28;20967;-53
2022/02/06 09:22:31;;;;;;;1.70;1.40;;;8.00;99.90;;;;;;5059704;28;20186;-55
2022/02/06 09:24:56;;;;;;;1.67;1.57;;;8.00;99.90;;;;;;5053486;28;20907;-52
2022/02/06 09:27:22;;;;;;;1.80;1.40;;;8.00;99.90;;;;;;5065898;28;20297;-53
2022/02/06 09:29:48;;;;;;;2.40;1.40;;;8.00;99.90;;;;;;5061381;28;20220;-50
2022/02/06 09:37:08;;;;;;;1.60;1.50;;;8.20;99.90;;;;;;5046863;28;20186;-50
2022/02/06 09:39:38;;;;;;;1.90;1.33;;;8.20;99.90;;;;;;5049000;28;20444;-51
2022/02/06 09:42:05;;;;;;;1.67;1.33;;;8.20;99.90;;;;;;5051822;28;21254;-54
2022/02/06 09:44:31;;;;;;;1.73;1.40;;;8.20;99.90;;;;;;5050130;28;20444;-52
2022/02/06 09:46:58;;;;;;;1.70;1.43;;;8.30;99.90;;;;;;5041988;28;20467;-52
2022/02/06 09:49:26;;;;;;;1.40;1.30;;;8.40;99.90;;;;;;5050190;28;20463;-47
2022/02/06 09:51:52;;;;;;;2.13;1.70;;;8.50;99.90;;;;;;5052666;28;20554;-52
2022/02/06 09:54:19;;;;;;;1.60;1.50;;;8.80;99.90;;;;;;5049273;28;20880;-51
2022/02/06 09:56:50;;;;;;;2.00;1.90;;;8.90;99.90;;;;;;5066694;28;20411;-55
2022/02/06 09:59:20;;;;;;;1.80;1.70;;;9.00;99.90;;;;;;5046318;28;20790;-56
2022/02/06 10:02:04;;;;;;;2.10;2.00;;;9.00;99.90;;;;;;5062672;28;20432;-52
2022/02/06 10:04:31;;;;;;;2.43;2.23;;;9.10;99.90;;;;;;5048025;28;20443;-53
2022/02/06 10:06:57;;;;;;;2.53;2.03;;;9.20;99.90;;;;;;5047416;28;20440;-53
2022/02/06 10:09:30;;;;;;;4.07;2.00;;;9.10;99.90;;;;;;5046634;28;20502;-51
2022/02/06 10:11:57;;;;;;;2.27;1.80;;;9.10;99.90;;;;;;5048543;28;20198;-47
2022/02/06 10:14:23;;;;;;;1.83;1.73;;;9.10;99.90;;;;;;5050049;28;20453;-48
2022/02/06 10:16:52;;;;;;;2.10;1.83;;;9.10;99.90;;;;;;5051971;28;20452;-53
2022/02/06 10:19:18;;;;;;;2.07;1.97;;;9.20;99.90;;;;;;5049065;28;20425;-49
2022/02/06 10:21:45;;;;;;;2.80;2.60;;;9.30;99.90;;;;;;5052273;28;20440;-53
2022/02/06 10:24:20;;;;;;;1.90;1.80;;;9.40;99.90;;;;;;5045644;28;20937;-61
2022/02/06 10:27:12;;;;;;;1.97;1.77;;;9.40;99.90;;;;;;5049379;28;20428;-60
2022/02/06 10:29:41;;;;;;;2.17;1.97;;;9.50;99.90;;;;;;5043405;28;20462;-60
2022/02/06 10:32:12;;;;;;;2.17;1.83;;;9.60;99.90;;;;;;5046925;28;20455;-54
2022/02/06 10:34:38;;;;;;;2.50;2.30;;;9.70;99.90;;;;;;5048256;28;20429;-61
2022/02/06 10:37:21;;;;;;;2.10;1.90;;;9.80;99.90;;;;;;5047813;28;20784;-60
2022/02/06 10:40:02;;;;;;;2.00;1.90;;;10.10;98.80;;;;;;5048929;28;20424;-59
2022/02/06 10:42:38;;;;;;;2.57;2.27;;;10.40;97.00;;;;;;5048661;28;20413;-59
2022/02/06 10:45:25;;;;;;;2.90;2.10;;;10.70;96.60;;;;;;5045478;28;20549;-61
2022/02/06 10:47:53;;;;;;;2.40;2.30;;;10.90;95.70;;;;;;5047273;28;20436;-60
2022/02/06 10:50:22;;;;;;;2.40;2.30;;;11.00;95.00;;;;;;5050427;28;20894;-61
2022/02/06 10:52:49;;;;;;;2.23;2.10;;;10.80;95.20;;;;;;5050376;28;20480;-59
2022/02/06 10:55:16;;;;;;;2.13;2.03;;;10.50;95.10;;;;;;5048273;28;20599;-60
2022/02/06 10:58:16;;;;;;;2.40;2.20;;;10.20;95.40;;;;;;5043879;28;20447;-60
2022/02/06 11:00:42;;;;;;;2.50;2.30;;;10.00;97.10;;;;;;5016521;28;20445;-62
2022/02/06 11:03:37;;;;;;;2.30;2.10;;;10.10;96.30;;;;;;5062918;28;20773;-61
2022/02/06 11:06:21;;;;;;;3.23;2.17;;;9.90;97.50;;;;;;5048811;28;20178;-55
2022/02/06 11:08:47;;;;;;;2.03;1.93;;;9.90;97.30;;;;;;5050153;28;20874;-61
2022/02/06 11:11:12;;;;;;;2.43;2.23;;;10.00;96.80;;;;;;5065579;28;20458;-60
2022/02/06 11:13:38;;;;;;;2.20;2.00;;;10.50;96.30;;;;;;5056834;28;20182;-61
2022/02/06 11:16:15;;;;;;;2.13;2.03;;;11.10;94.10;;;;;;5046355;28;20240;-61
2022/02/06 11:18:49;;;;;;;2.23;2.13;;;11.10;93.50;;;;;;5050308;28;20194;-60
2022/02/06 11:21:18;;;;;;;2.50;2.30;;;11.30;94.20;;;;;;5047417;28;20429;-58
2022/02/06 11:23:47;;;;;;;2.33;2.23;;;11.60;92.90;;;;;;5048311;28;20739;-52
2022/02/06 11:26:18;;;;;;;2.40;2.30;;;11.70;91.80;;;;;;5055506;28;20431;-59
2022/02/06 11:28:45;;;;;;;2.70;2.50;;;11.40;92.20;;;;;;5067934;28;20416;-59
2022/02/06 11:31:11;;;;;;;2.20;2.10;;;11.10;92.40;;;;;;5051752;28;20427;-60
2022/02/06 11:33:37;;;;;;;5.60;2.47;;;10.80;92.90;;;;;;5048649;28;20425;-59
2022/02/06 11:36:11;;;;;;;2.50;2.40;;;10.40;93.50;;;;;;5057155;28;20425;-56
2022/02/06 11:45:29;;;;;;;3.47;2.10;;;10.20;95.00;;;;;;4942483;29;20459;-62
2022/02/06 11:48:05;;;;;;;2.30;2.17;;;10.10;94.40;;;;;;4980108;28;21055;-59
2022/02/06 11:50:32;;;;;;;2.53;2.33;;;10.10;94.60;;;;;;4984930;28;20882;-59
2022/02/06 11:53:03;;;;;;;2.37;2.17;;;10.10;95.00;;;;;;4976029;28;20488;-60
2022/02/06 11:55:42;;;;;;;2.10;2.00;;;10.10;94.80;;;;;;4971091;28;20452;-59
2022/02/06 11:58:29;;;;;;;2.33;2.00;;;10.00;95.10;;;;;;4964504;28;20432;-62
2022/02/06 12:01:07;;;;;;;2.20;2.00;;;9.90;95.60;;;;;;4972000;28;20480;-64
2022/02/06 12:04:01;;;;;;;2.30;2.20;;;9.90;96.00;;;;;;4983397;28;20434;-60
2022/02/06 12:06:36;;;;;;;2.43;2.00;;;10.00;96.60;;;;;;4982817;28;20431;-61
2022/02/06 12:09:02;;;;;;;2.33;2.23;;;10.00;95.90;;;;;;4986701;28;20439;-60
2022/02/06 12:11:32;;;;;;;2.17;2.03;;;9.80;96.20;;;;;;4988133;28;20898;-58
2022/02/06 12:14:16;;;;;;;7.73;1.90;;;9.70;96.70;;;;;;4986521;28;20185;-62
2022/02/06 12:19:40;;;;;;;2.57;2.40;;;9.60;97.70;;;;;;5046055;28;20432;-60
2022/02/06 12:22:26;;;;;;;2.20;2.10;;;9.70;96.70;;;;;;5047601;28;20812;-59
2022/02/06 12:24:52;;;;;;;2.00;1.90;;;9.60;97.10;;;;;;5047438;28;20240;-61
2022/02/06 12:27:25;;;;;;;2.10;1.90;;;9.60;97.10;;;;;;5049881;28;20898;-61
2022/02/06 12:29:57;;;;;;;2.30;2.20;;;9.60;96.80;;;;;;5051248;28;20786;-59
2022/02/06 12:32:39;;;;;;;2.07;1.97;;;9.60;96.80;;;;;;5059904;28;20472;-61
2022/02/06 12:37:55;;;;;;;1.80;1.70;;;9.60;96.70;;;;;;5055842;28;20469;-59
2022/02/06 12:40:23;;;;;;;2.20;2.10;;;9.50;96.60;;;;;;5059225;28;20428;-56
2022/02/06 12:42:57;;;;;;;2.07;1.90;;;9.50;97.10;;;;;;5053374;28;20969;-62
2022/02/06 12:45:23;;;;;;;1.70;1.60;;;9.50;97.50;;;;;;5050740;28;20446;-61
2022/02/06 12:47:51;;;;;;;2.20;2.00;;;9.40;97.50;;;;;;5071742;28;20415;-62
2022/02/06 12:50:21;;;;;;;1.90;1.80;;;9.30;97.60;;;;;;5058441;28;20443;-60
2022/02/06 12:52:47;;;;;;;1.80;1.70;;;9.30;97.90;;;;;;5057758;28;20995;-56
2022/02/06 12:55:14;;;;;;;1.83;1.73;;;9.40;97.80;;;;;;5061268;28;20566;-62
2022/02/06 12:57:43;;;;;;;1.50;1.50;;;9.40;97.80;;;;;;5065394;28;20417;-60
2022/02/06 13:00:21;;;;;;;1.80;1.70;;;9.40;97.70;;;;;;5048180;28;20474;-64
2022/02/06 13:02:47;;;;;;;1.80;1.70;;;9.30;97.90;;;;;;5051070;28;21096;-57
2022/02/06 13:05:14;;;;;;;1.70;1.60;;;9.20;98.00;;;;;;5050133;28;20447;-59
2022/02/06 13:07:46;;;;;;;1.70;1.60;;;9.20;98.50;;;;;;5053942;28;20550;-62
2022/02/06 13:10:13;;;;;;;1.93;1.83;;;9.00;98.80;;;;;;5053645;28;20501;-61
2022/02/06 13:24:03;;;;;;;1.67;1.57;;;8.80;99.90;;;;;;5059776;28;20951;-58
2022/02/06 13:26:16;;;;;;;1.80;1.70;;;8.90;99.90;;;;;;5046703;28;20432;-58
2022/02/06 13:38:53;;;;;;;1.57;1.47;;;8.90;99.90;;;;;;5059509;28;20737;-62
2022/02/06 13:41:24;;;;;;;1.60;1.50;;;8.90;99.90;;;;;;5059284;28;21015;-62
2022/02/06 13:43:52;;;;;;;1.50;1.40;;;8.90;99.90;;;;;;5052849;28;20426;-60
2022/02/06 13:46:24;;;;;;;1.50;1.40;;;9.00;99.80;;;;;;5039442;28;20528;-62
2022/02/06 13:48:51;;;;;;;1.53;1.43;;;9.10;99.90;;;;;;5032427;28;20433;-60
2022/02/06 13:51:27;;;;;;;1.40;1.40;;;9.10;99.50;;;;;;5049437;28;20511;-50
2022/02/06 13:54:00;;;;;;;1.43;1.33;;;9.10;99.50;;;;;;5057269;28;20925;-60
2022/02/06 13:56:25;;;;;;;1.50;1.40;;;9.20;99.10;;;;;;5050381;28;20437;-59
2022/02/06 13:59:03;;;;;;;1.57;1.47;;;9.30;98.70;;;;;;5039518;28;21074;-60
2022/02/06 14:01:53;;;;;;;1.50;1.40;;;9.40;98.20;;;;;;5062727;28;20193;-59
2022/02/06 14:04:25;;;;;;;1.90;1.80;;;9.50;98.50;;;;;;5048120;28;20440;-59
2022/02/06 14:06:58;;;;;;;1.50;1.40;;;9.50;97.90;;;;;;5057618;28;20429;-60
2022/02/06 14:09:31;;;;;;;1.70;1.60;;;9.60;97.90;;;;;;5069724;28;20508;-59
2022/02/06 14:12:05;;;;;;;1.90;1.80;;;9.60;97.30;;;;;;5056377;28;20622;-60
2022/02/06 14:14:35;;;;;;;1.30;1.30;;;9.60;96.80;;;;;;5068981;28;20513;-59
2022/02/06 14:17:04;;;;;;;1.40;1.30;;;9.70;96.70;;;;;;5057466;28;20814;-59
2022/02/06 14:19:31;;;;;;;1.43;1.40;;;9.70;96.80;;;;;;5049965;28;20416;-59
2022/02/06 14:21:56;;;;;;;1.30;1.30;;;9.80;96.50;;;;;;5057923;28;20421;-60
2022/02/06 14:24:22;;;;;;;1.47;1.37;;;9.80;96.00;;;;;;5051795;28;20426;-60
2022/02/06 14:27:04;;;;;;;1.50;1.40;;;9.70;96.00;;;;;;5051277;28;20193;-59
2022/02/06 14:29:32;;;;;;;1.60;1.50;;;9.70;96.30;;;;;;5031160;28;20187;-60
2022/02/06 14:32:14;;;;;;;1.50;1.40;;;9.60;96.00;;;;;;5035250;28;20514;-55
2022/02/06 14:34:40;;;;;;;1.60;1.50;;;9.60;95.70;;;;;;5049857;28;20420;-59
2022/02/06 14:37:15;;;;;;;1.70;1.60;;;9.70;95.70;;;;;;5058835;28;20433;-61
2022/02/06 14:40:13;;;;;;;1.77;1.67;;;9.70;95.40;;;;;;5060179;28;20515;-60
2022/02/06 14:42:52;;;;;;;1.50;1.40;;;9.70;95.50;;;;;;5068156;28;20435;-58
2022/02/06 14:45:18;;;;;;;1.50;1.50;;;9.70;94.90;;;;;;5056282;28;20799;-61
2022/02/06 14:47:44;;;;;;;1.87;1.77;;;9.70;94.90;;;;;;5051564;28;21149;-60
2022/02/06 14:50:20;;;;;;;1.77;1.67;;;9.70;94.90;;;;;;5033430;28;20465;-60
2022/02/06 14:52:47;;;;;;;1.70;1.60;;;9.70;95.00;;;;;;5029191;28;20604;-61
2022/02/06 14:55:14;;;;;;;1.70;1.60;;;9.80;94.80;;;;;;5035348;28;20429;-59
2022/02/06 14:57:40;;;;;;;1.60;1.50;;;9.80;94.80;;;;;;5031628;28;20904;-60
2022/02/06 15:00:08;;;;;;;1.80;1.70;;;9.70;95.00;;;;;;5033844;28;20428;-61
2022/02/06 15:02:35;;;;;;;1.70;1.60;;;9.70;94.10;;;;;;5034265;28;20409;-60
2022/02/06 15:05:01;;;;;;;2.00;1.90;;;9.70;94.30;;;;;;5036453;28;20445;-61
2022/02/06 15:07:28;;;;;;;2.07;1.97;;;9.70;94.40;;;;;;5042089;28;20839;-60
2022/02/06 15:09:54;;;;;;;1.50;1.40;;;9.70;94.40;;;;;;5030046;28;20413;-60
2022/02/06 15:12:20;;;;;;;1.63;1.60;;;9.60;94.60;;;;;;5030537;28;20460;-59
2022/02/06 15:14:45;;;;;;;1.80;1.70;;;9.70;95.30;;;;;;5029264;28;20240;-61
2022/02/06 15:17:12;;;;;;;1.33;1.30;;;9.50;96.60;;;;;;5033123;28;20175;-59
2022/02/06 15:19:38;;;;;;;1.30;1.30;;;9.30;98.30;;;;;;5031494;28;20262;-59
2022/02/06 15:22:04;;;;;;;1.50;1.40;;;9.10;99.30;;;;;;5031855;28;20954;-58
2022/02/06 15:24:29;;;;;;;1.30;1.30;;;9.00;99.90;;;;;;5030046;28;20591;-59
2022/02/06 15:26:55;;;;;;;1.60;1.50;;;8.90;99.90;;;;;;5033141;28;20462;-62
2022/02/06 15:29:21;;;;;;;1.57;1.47;;;8.70;99.90;;;;;;5035946;28;20201;-57